createdAt,value
2023-06-16T00:00:33.446Z,9.70
2023-06-16T00:03:02.685Z,8.00
2023-06-16T00:05:31.173Z,9.75
2023-06-16T00:07:59.647Z,14.02
2023-06-16T00:10:27.542Z,9.50
2023-06-16T00:12:56.857Z,9.52
2023-06-16T00:15:25.272Z,6.47
2023-06-16T00:17:53.686Z,15.55
2023-06-16T00:20:22.685Z,6.30
2023-06-16T00:22:50.860Z,8.27
2023-06-16T00:25:20.276Z,6.97
2023-06-16T00:27:48.520Z,11.48
2023-06-16T00:30:18.148Z,11.23
2023-06-16T00:32:47.040Z,9.60
2023-06-16T00:35:14.907Z,8.48
2023-06-16T00:37:42.959Z,8.02
2023-06-16T00:40:11.858Z,6.95
2023-06-16T00:42:39.733Z,10.18
2023-06-16T00:45:08.696Z,11.25
2023-06-16T00:47:37.988Z,10.07
2023-06-16T00:50:06.869Z,5.63
2023-06-16T00:52:38.069Z,6.32
2023-06-16T00:55:09.666Z,8.45
2023-06-16T00:57:38.142Z,7.20
2023-06-16T01:00:08.365Z,6.25
2023-06-16T01:02:38.237Z,8.45
2023-06-16T01:05:08.070Z,9.68
2023-06-16T01:07:42.003Z,7.97
2023-06-16T01:10:18.230Z,10.18
2023-06-16T01:12:57.837Z,5.65
2023-06-16T01:15:28.882Z,9.50
2023-06-16T01:18:02.561Z,7.55
2023-06-16T01:20:40.406Z,8.02
2023-06-16T01:23:21.663Z,8.07
2023-06-16T01:25:54.817Z,8.15
2023-06-16T01:28:24.213Z,15.18
2023-06-16T01:30:53.471Z,9.00
2023-06-16T01:33:25.004Z,10.20
2023-06-16T01:35:57.093Z,8.40
2023-06-16T01:38:28.717Z,7.50
2023-06-16T01:41:00.644Z,7.55
2023-06-16T01:43:29.381Z,7.93
2023-06-16T01:46:00.806Z,9.95
2023-06-16T01:48:29.559Z,6.20
2023-06-16T01:50:57.506Z,11.95
2023-06-16T01:53:25.531Z,10.13
2023-06-16T01:55:54.101Z,11.02
2023-06-16T01:58:25.340Z,8.13
2023-06-16T02:00:58.647Z,12.90
2023-06-16T02:03:30.450Z,9.27
2023-06-16T02:06:02.025Z,7.80
2023-06-16T02:08:31.439Z,9.60
2023-06-16T02:10:59.592Z,9.77
2023-06-16T02:13:30.588Z,11.10
2023-06-16T02:15:59.013Z,8.38
2023-06-16T02:18:29.309Z,9.30
2023-06-16T02:20:57.463Z,6.95
2023-06-16T02:23:26.104Z,7.22
2023-06-16T02:25:54.348Z,8.15
2023-06-16T02:28:22.268Z,12.05
2023-06-16T02:30:51.747Z,10.65
2023-06-16T02:33:19.885Z,9.10
2023-06-16T02:35:47.875Z,11.15
2023-06-16T02:38:15.744Z,10.77
2023-06-16T02:40:43.784Z,12.00
2023-06-16T02:43:11.686Z,10.32
2023-06-16T02:45:40.733Z,10.50
2023-06-16T02:48:10.602Z,9.35
2023-06-16T02:50:39.036Z,12.15
2023-06-16T02:53:11.147Z,9.65
2023-06-16T02:55:39.461Z,10.55
2023-06-16T02:58:07.365Z,8.48
2023-06-16T03:00:36.320Z,14.45
2023-06-16T03:03:17.544Z,14.30
2023-06-16T03:05:51.429Z,11.73
2023-06-16T03:08:21.300Z,14.40
2023-06-16T03:10:49.203Z,11.65
2023-06-16T03:13:24.341Z,13.73
2023-06-16T03:15:53.770Z,13.02
2023-06-16T03:18:23.139Z,10.40
2023-06-16T03:20:51.047Z,17.98
2023-06-16T03:23:24.602Z,10.88
2023-06-16T03:25:52.446Z,9.82
2023-06-16T03:28:26.379Z,11.40
2023-06-16T03:30:54.912Z,11.63
2023-06-16T03:33:37.285Z,20.02
2023-06-16T03:36:06.256Z,14.20
2023-06-16T03:38:41.755Z,9.43
2023-06-16T03:41:10.116Z,14.43
2023-06-16T03:43:38.520Z,11.63
2023-06-16T03:46:06.481Z,15.75
2023-06-16T03:48:34.393Z,16.13
2023-06-16T03:51:06.214Z,12.70
2023-06-16T03:53:34.200Z,13.27
2023-06-16T03:56:02.678Z,11.70
2023-06-16T03:58:31.250Z,10.95
2023-06-16T04:00:59.481Z,10.90
2023-06-16T04:03:28.093Z,11.75
2023-06-16T04:05:56.788Z,9.95
2023-06-16T04:08:26.279Z,9.60
2023-06-16T04:10:58.525Z,13.48
2023-06-16T04:13:28.215Z,12.52
2023-06-16T04:15:56.296Z,12.57
2023-06-16T04:18:24.179Z,20.77
2023-06-16T04:20:52.205Z,16.10
2023-06-16T04:23:20.786Z,13.45
2023-06-16T04:25:50.079Z,11.90
2023-06-16T04:28:19.265Z,9.27
2023-06-16T04:30:51.775Z,8.30
2023-06-16T04:33:24.203Z,9.15
2023-06-16T04:35:53.810Z,13.20
2023-06-16T04:38:24.716Z,10.30
2023-06-16T04:40:55.940Z,17.27
2023-06-16T04:43:23.976Z,14.30
2023-06-16T04:45:52.074Z,13.48
2023-06-16T04:48:21.044Z,12.32
2023-06-16T04:50:49.160Z,15.65
2023-06-16T04:53:17.256Z,11.15
2023-06-16T04:55:45.437Z,14.32
2023-06-16T04:58:15.048Z,12.82
2023-06-16T05:00:43.078Z,11.95
2023-06-16T05:03:11.566Z,14.52
2023-06-16T05:05:39.666Z,9.10
2023-06-16T05:08:07.777Z,16.38
2023-06-16T05:10:36.797Z,13.07
2023-06-16T05:13:05.086Z,13.38
2023-06-16T05:15:34.448Z,12.38
2023-06-16T05:18:02.626Z,15.15
2023-06-16T05:20:33.102Z,9.90
2023-06-16T05:23:03.845Z,11.70
2023-06-16T05:25:32.215Z,14.27
2023-06-16T05:28:01.714Z,13.55
2023-06-16T05:30:31.565Z,16.05
2023-06-16T05:33:01.593Z,13.45
2023-06-16T05:35:29.687Z,15.90
2023-06-16T05:37:57.706Z,23.77
2023-06-16T05:40:25.881Z,11.00
2023-06-16T05:42:54.176Z,14.52
2023-06-16T05:45:22.636Z,14.30
2023-06-16T05:47:52.746Z,9.75
2023-06-16T05:50:22.535Z,18.48
2023-06-16T05:52:50.671Z,9.60
2023-06-16T05:55:18.870Z,7.32
2023-06-16T05:57:51.294Z,9.45
2023-06-16T06:00:20.363Z,10.88
2023-06-16T06:02:55.730Z,9.98
2023-06-16T06:05:31.360Z,11.90
2023-06-16T06:07:59.606Z,9.77
2023-06-16T06:10:28.437Z,13.43
2023-06-16T06:12:58.297Z,9.10
2023-06-16T06:15:30.151Z,11.88
2023-06-16T06:18:09.258Z,18.45
2023-06-16T06:20:42.968Z,10.35
2023-06-16T06:23:11.027Z,8.35
2023-06-16T06:25:41.389Z,10.02
2023-06-16T06:28:11.060Z,11.75
2023-06-16T06:30:39.095Z,7.30
2023-06-16T06:33:07.224Z,10.10
2023-06-16T06:35:36.626Z,7.15
2023-06-16T06:38:06.040Z,11.30
2023-06-16T06:40:36.453Z,9.45
2023-06-16T06:43:04.723Z,9.05
2023-06-16T06:45:50.588Z,9.35
2023-06-16T06:48:20.110Z,12.20
2023-06-16T06:50:50.279Z,10.73
2023-06-16T06:53:20.136Z,18.30
2023-06-16T06:55:48.225Z,8.15
2023-06-16T06:58:16.221Z,9.00
2023-06-16T07:00:44.068Z,9.52
2023-06-16T07:03:13.654Z,6.60
2023-06-16T07:05:41.655Z,11.38
2023-06-16T07:08:09.493Z,7.50
2023-06-16T07:10:38.955Z,13.45
2023-06-16T07:13:07.630Z,8.70
2023-06-16T07:15:35.547Z,10.27
2023-06-16T07:18:03.764Z,9.52
2023-06-16T07:20:32.224Z,7.43
2023-06-16T07:23:00.316Z,6.40
2023-06-16T07:25:29.306Z,6.55
2023-06-16T07:27:58.642Z,7.75
2023-06-16T07:30:26.791Z,5.45
2023-06-16T07:32:54.836Z,8.50
2023-06-16T07:35:22.773Z,5.53
2023-06-16T07:37:50.698Z,18.45
2023-06-16T07:40:18.930Z,6.57
2023-06-16T07:42:47.461Z,7.07
2023-06-16T07:45:18.526Z,7.55
2023-06-16T07:47:47.963Z,8.65
2023-06-16T07:50:16.306Z,9.13
2023-06-16T07:52:44.285Z,10.65
2023-06-16T07:55:12.575Z,8.55
2023-06-16T07:57:41.044Z,7.65
2023-06-16T08:00:12.402Z,4.97
2023-06-16T08:02:44.630Z,12.70
2023-06-16T08:05:13.698Z,7.10
2023-06-16T08:07:41.645Z,7.15
2023-06-16T08:10:10.189Z,12.20
2023-06-16T08:12:38.254Z,7.35
2023-06-16T08:15:07.150Z,8.07
2023-06-16T08:17:35.120Z,6.90
2023-06-16T08:20:05.789Z,10.55
2023-06-16T08:22:33.979Z,8.45
2023-06-16T08:25:02.544Z,6.00
2023-06-16T08:27:30.438Z,8.43
2023-06-16T08:29:58.314Z,8.27
2023-06-16T08:32:26.843Z,10.90
2023-06-16T08:34:54.757Z,6.90
2023-06-16T08:37:29.935Z,10.32
2023-06-16T08:39:59.155Z,6.35
2023-06-16T08:42:27.268Z,9.80
2023-06-16T08:44:55.311Z,7.03
2023-06-16T08:47:23.900Z,9.43
2023-06-16T08:49:53.701Z,7.22
2023-06-16T08:52:38.791Z,6.80
2023-06-16T08:55:14.601Z,6.53
2023-06-16T08:57:49.148Z,8.18
2023-06-16T09:00:19.179Z,9.68
2023-06-16T09:02:51.147Z,9.02
2023-06-16T09:05:20.189Z,6.88
2023-06-16T09:07:50.910Z,9.27
2023-06-16T09:10:19.719Z,5.13
2023-06-16T09:12:52.867Z,6.03
2023-06-16T09:15:21.133Z,7.22
2023-06-16T09:17:50.772Z,11.27
2023-06-16T09:20:20.441Z,8.35
2023-06-16T09:22:57.863Z,6.03
2023-06-16T09:25:25.856Z,7.53
2023-06-16T09:27:56.018Z,6.28
2023-06-16T09:30:31.608Z,7.45
2023-06-16T09:33:00.146Z,4.20
2023-06-16T09:35:29.871Z,5.30
2023-06-16T09:38:00.642Z,3.47
2023-06-16T09:40:30.024Z,5.88
2023-06-16T09:43:01.571Z,3.88
2023-06-16T09:45:31.944Z,3.60
2023-06-16T09:48:04.569Z,3.35
2023-06-16T09:50:33.763Z,3.50
2023-06-16T09:53:07.242Z,3.20
2023-06-16T09:55:38.907Z,4.70
2023-06-16T09:58:07.057Z,4.60
2023-06-16T10:00:35.817Z,6.90
2023-06-16T10:03:06.231Z,3.33
2023-06-16T10:05:38.339Z,3.00
2023-06-16T10:08:08.859Z,2.78
2023-06-16T10:10:40.742Z,5.35
2023-06-16T10:13:10.827Z,3.88
2023-06-16T10:15:40.909Z,4.85
2023-06-16T10:18:12.736Z,2.28
2023-06-16T10:20:43.608Z,3.17
2023-06-16T10:23:13.134Z,2.55
2023-06-16T10:25:42.043Z,1.95
2023-06-16T10:28:14.488Z,1.73
2023-06-16T10:30:43.862Z,2.88
2023-06-16T10:33:18.964Z,2.67
2023-06-16T10:36:03.864Z,4.30
2023-06-16T10:38:41.448Z,3.85
2023-06-16T10:41:15.901Z,4.68
2023-06-16T10:43:44.497Z,2.63
2023-06-16T10:46:16.632Z,1.83
2023-06-16T10:49:21.208Z,4.80
2023-06-16T10:51:50.895Z,2.53
2023-06-16T10:54:44.342Z,3.03
2023-06-16T10:57:14.647Z,4.57
2023-06-16T10:59:56.578Z,3.35
2023-06-16T11:02:26.330Z,2.58
2023-06-16T11:05:13.726Z,2.58
2023-06-16T11:07:42.937Z,5.13
2023-06-16T11:10:18.223Z,4.40
2023-06-16T11:12:47.169Z,7.18
2023-06-16T11:15:15.943Z,11.15
2023-06-16T11:17:45.681Z,4.25
2023-06-16T11:20:14.623Z,3.58
2023-06-16T11:22:44.037Z,4.43
2023-06-16T11:25:14.222Z,5.25
2023-06-16T11:27:42.906Z,4.55
2023-06-16T11:30:12.451Z,5.53
2023-06-16T11:32:41.625Z,4.70
2023-06-16T11:35:10.555Z,3.67
2023-06-16T11:37:42.714Z,4.10
2023-06-16T11:40:12.575Z,4.35
2023-06-16T11:42:41.957Z,4.88
2023-06-16T11:45:10.873Z,4.60
2023-06-16T11:47:40.209Z,5.10
2023-06-16T11:50:09.906Z,5.35
2023-06-16T11:52:38.233Z,3.65
2023-06-16T11:55:06.863Z,5.80
2023-06-16T11:57:38.355Z,5.47
2023-06-16T12:00:10.482Z,6.75
2023-06-16T12:02:39.304Z,5.50
2023-06-16T12:05:11.725Z,7.45
2023-06-16T12:07:40.134Z,4.78
2023-06-16T12:10:09.815Z,4.63
2023-06-16T12:12:39.800Z,7.88
2023-06-16T12:15:10.335Z,4.45
2023-06-16T12:17:40.651Z,5.47
2023-06-16T12:20:12.127Z,3.28
2023-06-16T12:22:40.683Z,4.60
2023-06-16T12:25:14.351Z,6.78
2023-06-16T12:27:45.763Z,3.75
2023-06-16T12:30:16.123Z,4.95
2023-06-16T12:32:46.689Z,5.07
2023-06-16T12:35:24.285Z,3.63
2023-06-16T12:37:52.414Z,3.78
2023-06-16T12:40:30.067Z,3.80
2023-06-16T12:42:57.929Z,2.88
2023-06-16T12:45:28.280Z,4.13
2023-06-16T12:47:56.411Z,4.03
2023-06-16T12:50:24.338Z,3.63
2023-06-16T12:52:52.196Z,3.60
2023-06-16T12:55:20.627Z,4.47
2023-06-16T12:57:48.538Z,4.65
2023-06-16T13:00:17.572Z,4.70
2023-06-16T13:02:49.323Z,3.47
2023-06-16T13:05:17.284Z,5.50
2023-06-16T13:07:45.436Z,3.30
2023-06-16T13:10:13.338Z,2.45
2023-06-16T13:12:49.492Z,4.53
2023-06-16T13:15:17.355Z,11.70
2023-06-16T13:17:46.612Z,5.45
2023-06-16T13:20:14.869Z,4.40
2023-06-16T13:22:42.757Z,6.60
2023-06-16T13:25:12.869Z,3.97
2023-06-16T13:27:42.285Z,4.03
2023-06-16T13:30:10.910Z,3.22
2023-06-16T13:32:38.855Z,5.95
2023-06-16T13:35:09.753Z,6.30
2023-06-16T13:37:37.595Z,6.40
2023-06-16T13:40:06.337Z,2.90
2023-06-16T13:42:34.710Z,3.45
2023-06-16T13:45:02.607Z,5.43
2023-06-16T13:47:30.517Z,3.90
2023-06-16T13:49:58.547Z,4.03
2023-06-16T13:52:29.399Z,5.38
2023-06-16T13:54:57.673Z,4.47
2023-06-16T13:57:25.560Z,3.33
2023-06-16T13:59:53.673Z,7.95
2023-06-16T14:02:21.564Z,4.07
2023-06-16T14:04:49.527Z,4.10
2023-06-16T14:07:17.421Z,3.80
2023-06-16T14:09:46.570Z,3.08
2023-06-16T14:12:14.444Z,4.07
2023-06-16T14:14:42.348Z,5.10
2023-06-16T14:17:10.316Z,4.05
2023-06-16T14:19:38.691Z,4.88
2023-06-16T14:22:07.107Z,2.83
2023-06-16T14:24:35.080Z,3.80
2023-06-16T14:27:04.715Z,4.60
2023-06-16T14:29:32.546Z,3.38
2023-06-16T14:32:00.488Z,2.65
2023-06-16T14:34:30.486Z,2.78
2023-06-16T14:36:58.974Z,4.18
2023-06-16T14:39:26.925Z,4.85
2023-06-16T14:41:54.855Z,3.08
2023-06-16T14:44:24.496Z,5.03
2023-06-16T14:46:53.273Z,5.00
2023-06-16T14:49:21.154Z,2.45
2023-06-16T14:51:49.018Z,3.38
2023-06-16T14:54:17.043Z,4.93
2023-06-16T14:56:44.880Z,5.07
2023-06-16T14:59:12.846Z,7.20
2023-06-16T15:01:42.456Z,3.38
2023-06-16T15:04:10.434Z,2.92
2023-06-16T15:06:38.568Z,3.47
2023-06-16T15:09:07.020Z,4.80
2023-06-16T15:11:34.990Z,2.35
2023-06-16T15:14:03.038Z,3.55
2023-06-16T15:16:31.417Z,3.53
2023-06-16T15:19:01.004Z,3.60
2023-06-16T15:21:28.865Z,4.32
2023-06-16T15:23:57.108Z,2.88
2023-06-16T15:26:25.396Z,6.57
2023-06-16T15:28:53.307Z,6.35
2023-06-16T15:31:21.197Z,5.72
2023-06-16T15:33:49.083Z,3.25
2023-06-16T15:36:18.478Z,3.97
2023-06-16T15:39:09.907Z,6.38
2023-06-16T15:41:39.283Z,4.55
2023-06-16T15:44:08.622Z,8.85
2023-06-16T15:46:39.000Z,6.07
2023-06-16T15:49:06.931Z,4.47
2023-06-16T15:51:38.252Z,4.60
2023-06-16T15:54:06.324Z,5.57
2023-06-16T15:56:34.344Z,4.18
2023-06-16T15:59:02.320Z,8.00
2023-06-16T16:01:30.431Z,7.53
2023-06-16T16:03:58.542Z,10.38
2023-06-16T16:06:26.504Z,5.45
2023-06-16T16:08:55.675Z,7.32
2023-06-16T16:11:23.511Z,6.13
2023-06-16T16:13:51.404Z,6.18
2023-06-16T16:16:19.280Z,6.22
2023-06-16T16:18:47.187Z,7.18
2023-06-16T16:21:15.110Z,8.48
2023-06-16T16:23:43.120Z,9.43
2023-06-16T16:26:12.612Z,7.50
2023-06-16T16:28:41.637Z,10.20
2023-06-16T16:31:09.688Z,5.63
2023-06-16T16:33:37.589Z,10.82
2023-06-16T16:36:05.946Z,13.18
2023-06-16T16:38:34.475Z,10.68
2023-06-16T16:41:02.609Z,5.93
2023-06-16T16:43:31.794Z,6.68
2023-06-16T16:45:59.729Z,7.57
2023-06-16T16:48:27.668Z,4.63
2023-06-16T16:50:55.835Z,11.07
2023-06-16T16:53:23.759Z,12.25
2023-06-16T16:55:52.024Z,6.57
2023-06-16T16:58:20.017Z,5.10
2023-06-16T17:00:49.960Z,8.57
2023-06-16T17:03:17.963Z,8.23
2023-06-16T17:05:45.919Z,5.68
2023-06-16T17:08:13.865Z,4.70
2023-06-16T17:10:41.797Z,10.52
2023-06-16T17:13:10.444Z,3.60
2023-06-16T17:15:38.654Z,3.53
2023-06-16T17:18:08.106Z,5.88
2023-06-16T17:20:36.720Z,7.60
2023-06-16T17:23:05.879Z,7.53
2023-06-16T17:25:33.921Z,7.60
2023-06-16T17:28:01.995Z,13.43
2023-06-16T17:30:29.991Z,4.57
2023-06-16T17:33:00.416Z,7.00
2023-06-16T17:35:31.199Z,5.35
2023-06-16T17:38:00.433Z,4.65
2023-06-16T17:40:31.420Z,6.25
2023-06-16T17:42:59.448Z,7.07
2023-06-16T17:45:27.462Z,7.55
2023-06-16T17:47:55.557Z,7.43
2023-06-16T17:50:27.830Z,6.40
2023-06-16T17:52:59.243Z,8.48
2023-06-16T17:55:27.234Z,6.22
2023-06-16T17:57:55.162Z,8.43
2023-06-16T18:00:23.827Z,7.47
2023-06-16T18:02:52.690Z,3.83
2023-06-16T18:05:23.474Z,5.63
2023-06-16T18:07:51.853Z,6.55
2023-06-16T18:10:21.659Z,4.18
2023-06-16T18:12:50.145Z,8.77
2023-06-16T18:15:18.127Z,5.10
2023-06-16T18:17:46.117Z,4.20
2023-06-16T18:20:14.202Z,10.93
2023-06-16T18:22:42.338Z,5.78
2023-06-16T18:25:10.885Z,4.25
2023-06-16T18:27:40.301Z,2.97
2023-06-16T18:30:09.633Z,10.73
2023-06-16T18:32:39.728Z,5.38
2023-06-16T18:35:08.622Z,7.80
2023-06-16T18:37:44.272Z,4.15
2023-06-16T18:40:13.675Z,6.80
2023-06-16T18:42:43.613Z,5.55
2023-06-16T18:45:12.231Z,5.40
2023-06-16T18:47:40.367Z,6.20
2023-06-16T18:50:10.034Z,4.80
2023-06-16T18:52:38.234Z,5.45
2023-06-16T18:55:07.569Z,5.95
2023-06-16T18:57:36.610Z,4.82
2023-06-16T19:00:09.642Z,5.25
2023-06-16T19:02:39.071Z,4.20
2023-06-16T19:05:09.514Z,4.97
2023-06-16T19:07:39.828Z,4.97
2023-06-16T19:10:11.792Z,6.97
2023-06-16T19:12:40.773Z,5.68
2023-06-16T19:15:13.103Z,4.95
2023-06-16T19:17:42.500Z,6.25
2023-06-16T19:20:13.718Z,3.70
2023-06-16T19:22:41.880Z,7.45
2023-06-16T19:25:11.046Z,7.85
2023-06-16T19:27:40.254Z,3.83
2023-06-16T19:30:11.328Z,6.55
2023-06-16T19:32:40.719Z,7.95
2023-06-16T19:35:09.447Z,5.22
2023-06-16T19:37:38.007Z,4.70
2023-06-16T19:40:07.902Z,6.15
2023-06-16T19:42:36.069Z,8.00
2023-06-16T19:45:04.122Z,5.32
2023-06-16T19:47:33.714Z,8.80
2023-06-16T19:50:01.667Z,7.20
2023-06-16T19:52:29.746Z,5.40
2023-06-16T19:54:57.722Z,7.88
2023-06-16T19:57:25.851Z,11.93
2023-06-16T19:59:54.064Z,7.90
2023-06-16T20:02:22.346Z,9.15
2023-06-16T20:04:52.905Z,7.53
2023-06-16T20:07:21.910Z,10.30
2023-06-16T20:09:50.368Z,9.70
2023-06-16T20:12:21.621Z,10.93
2023-06-16T20:14:49.818Z,6.47
2023-06-16T20:17:17.871Z,8.52
2023-06-16T20:19:46.045Z,9.10
2023-06-16T20:22:15.448Z,8.50
2023-06-16T20:24:43.366Z,8.57
2023-06-16T20:27:13.790Z,9.90
2023-06-16T20:29:43.160Z,7.15
2023-06-16T20:32:11.301Z,10.98
2023-06-16T20:34:39.417Z,5.70
2023-06-16T20:37:08.864Z,8.23
2023-06-16T20:39:38.842Z,10.43
2023-06-16T20:42:08.000Z,5.95
2023-06-16T20:44:37.745Z,10.90
2023-06-16T20:47:07.319Z,7.85
2023-06-16T20:49:38.090Z,9.10
2023-06-16T20:52:06.995Z,7.43
2023-06-16T20:54:35.046Z,8.70
2023-06-16T20:57:07.676Z,8.18
2023-06-16T20:59:36.627Z,10.27
2023-06-16T21:02:07.079Z,13.13
2023-06-16T21:04:35.070Z,9.82
2023-06-16T21:07:03.797Z,7.85
2023-06-16T21:09:32.411Z,10.73
2023-06-16T21:12:00.506Z,11.45
2023-06-16T21:14:29.727Z,8.80
2023-06-16T21:16:57.580Z,6.88
2023-06-16T21:19:37.866Z,7.53
2023-06-16T21:22:10.095Z,8.32
2023-06-16T21:24:37.932Z,8.63
2023-06-16T21:27:06.346Z,9.23
2023-06-16T21:29:35.646Z,8.90
2023-06-16T21:32:03.657Z,7.78
2023-06-16T21:34:31.626Z,8.05
2023-06-16T21:37:03.085Z,9.55
2023-06-16T21:39:32.536Z,5.97
2023-06-16T21:42:00.606Z,7.50
2023-06-16T21:44:28.480Z,7.40
2023-06-16T21:46:57.801Z,8.43
2023-06-16T21:49:25.715Z,7.97
2023-06-16T21:51:53.550Z,10.07
2023-06-16T21:54:21.495Z,6.88
2023-06-16T21:56:49.407Z,9.32
2023-06-16T21:59:17.826Z,8.13
2023-06-16T22:01:45.804Z,10.77
2023-06-16T22:04:15.090Z,8.57
2023-06-16T22:06:46.171Z,6.88
2023-06-16T22:09:14.532Z,8.27
2023-06-16T22:11:42.482Z,7.35
2023-06-16T22:14:11.366Z,7.97
2023-06-16T22:16:39.318Z,7.13
2023-06-16T22:19:07.231Z,9.75
2023-06-16T22:21:36.531Z,11.77
2023-06-16T22:24:04.730Z,8.00
2023-06-16T22:26:33.714Z,7.65
2023-06-16T22:29:01.663Z,8.70
2023-06-16T22:31:29.885Z,12.70
2023-06-16T22:33:57.887Z,7.60
2023-06-16T22:36:25.996Z,7.05
2023-06-16T22:38:55.313Z,9.48
2023-06-16T22:41:23.193Z,7.25
2023-06-16T22:43:51.108Z,7.57
2023-06-16T22:46:19.178Z,8.25
2023-06-16T22:48:47.951Z,9.13
2023-06-16T22:51:18.320Z,6.82
2023-06-16T22:53:47.997Z,11.43
2023-06-16T22:56:17.373Z,7.93
2023-06-16T22:58:45.619Z,9.93
2023-06-16T23:01:13.663Z,10.10
2023-06-16T23:03:41.952Z,8.63
2023-06-16T23:06:09.993Z,8.43
2023-06-16T23:08:38.079Z,7.63
2023-06-16T23:11:06.042Z,7.05
2023-06-16T23:13:35.514Z,6.88
2023-06-16T23:16:03.476Z,5.70
2023-06-16T23:18:31.476Z,9.13
2023-06-16T23:21:00.310Z,8.90
2023-06-16T23:23:29.444Z,9.45
2023-06-16T23:25:57.539Z,12.52
2023-06-16T23:28:26.864Z,10.73
2023-06-16T23:30:59.578Z,10.82
2023-06-16T23:33:30.155Z,10.80
2023-06-16T23:35:59.345Z,12.50
2023-06-16T23:38:27.245Z,11.23
2023-06-16T23:40:55.100Z,7.22
2023-06-16T23:43:23.377Z,6.63
2023-06-16T23:45:51.580Z,7.32
2023-06-16T23:48:20.936Z,7.13
2023-06-16T23:50:48.872Z,9.35
2023-06-16T23:53:16.790Z,7.68
2023-06-16T23:55:44.672Z,10.00
2023-06-16T23:58:12.545Z,6.93
